Time;durP1;ratioP1;P1;durP2;ratioP2;P2;SDS_P1;SDS_P2;PMS_P1;PMS_P2;Temp;Humidity;BMP_temperature;BMP_pressure;BME280_temperature;BME280_humidity;BME280_pressure;Samples;Min_cycle;Max_cycle;Signal;HPM_P1;HPM_P2
2021/04/20 00:02:26;;;;;;;45.30;41.20;;;;;;;;;;5079805;28;20528;-71
2021/04/20 00:04:53;;;;;;;44.83;40.77;;;;;;;;;;5079481;28;20506;-71
2021/04/20 00:07:21;;;;;;;46.00;41.70;;;;;;;;;;5079933;28;20485;-71
2021/04/20 00:09:48;;;;;;;47.77;43.03;;;;;;;;;;5079695;28;20523;-71
2021/04/20 00:12:15;;;;;;;47.27;42.53;;;;;;;;;;5079845;28;20754;-71
2021/04/20 00:14:42;;;;;;;45.73;41.53;;;;;;;;;;5079251;28;20419;-71
2021/04/20 00:17:09;;;;;;;42.90;39.17;;;;;;;;;;5079760;28;20469;-71
2021/04/20 00:19:36;;;;;;;45.60;41.40;;;;;;;;;;5079461;28;20492;-71
2021/04/20 00:22:03;;;;;;;45.17;40.67;;;;;;;;;;5079383;28;20445;-72
2021/04/20 00:24:30;;;;;;;46.27;41.33;;;;;;;;;;5079400;28;20465;-70
2021/04/20 00:26:57;;;;;;;46.10;41.97;;;;;;;;;;5079239;28;20768;-71
2021/04/20 00:29:24;;;;;;;45.70;41.40;;;;;;;;;;5075625;28;20442;-70
2021/04/20 00:31:52;;;;;;;45.03;40.83;;;;;;;;;;5076240;28;20934;-72
2021/04/20 00:34:19;;;;;;;42.93;38.80;;;;;;;;;;5076118;28;20437;-72
2021/04/20 00:36:45;;;;;;;43.50;39.53;;;;;;;;;;5076080;28;20848;-72
2021/04/20 00:39:12;;;;;;;45.13;40.83;;;;;;;;;;5076466;28;20977;-72
2021/04/20 00:41:39;;;;;;;43.83;39.70;;;;;;;;;;5076073;28;20536;-72
2021/04/20 00:44:06;;;;;;;44.83;40.73;;;;;;;;;;5075866;28;20448;-72
2021/04/20 00:46:33;;;;;;;44.40;40.33;;;;;;;;;;5076196;28;20454;-72
2021/04/20 00:49:01;;;;;;;45.53;41.13;;;;;;;;;;5075970;28;20472;-72
2021/04/20 00:51:28;;;;;;;44.63;40.60;;;;;;;;;;5076107;28;20461;-71
2021/04/20 00:53:55;;;;;;;44.13;40.20;;;;;;;;;;5076026;28;20412;-72
2021/04/20 00:56:22;;;;;;;44.33;40.30;;;;;;;;;;5075479;28;20995;-72
2021/04/20 00:58:50;;;;;;;47.30;42.40;;;;;;;;;;5075955;28;20478;-71
2021/04/20 01:01:17;;;;;;;46.67;41.70;;;;;;;;;;5075730;28;20469;-72
2021/04/20 01:03:44;;;;;;;44.10;39.90;;;;;;;;;;5075498;28;20452;-71
2021/04/20 01:06:12;;;;;;;44.90;40.70;;;;;;;;;;5075852;28;20434;-71
2021/04/20 01:08:39;;;;;;;45.23;40.93;;;;;;;;;;5075734;28;20433;-71
2021/04/20 01:11:06;;;;;;;44.43;40.07;;;;;;;;;;5075297;28;20445;-72
2021/04/20 01:13:34;;;;;;;45.43;41.20;;;;;;;;;;5075181;28;20507;-71
2021/04/20 01:16:01;;;;;;;44.67;40.37;;;;;;;;;;5075260;28;20482;-71
2021/04/20 01:18:29;;;;;;;44.33;40.17;;;;;;;;;;5075460;28;20484;-71
2021/04/20 01:20:58;;;;;;;44.97;40.50;;;;;;;;;;5075474;28;20460;-72
2021/04/20 01:23:28;;;;;;;43.37;39.33;;;;;;;;;;5075446;28;20417;-72
2021/04/20 01:25:56;;;;;;;44.57;40.40;;;;;;;;;;5075122;28;20404;-72
2021/04/20 01:28:24;;;;;;;46.00;41.50;;;;;;;;;;5074935;28;20424;-72
2021/04/20 01:30:51;;;;;;;44.00;39.80;;;;;;;;;;5075089;28;20393;-72
2021/04/20 01:33:18;;;;;;;44.83;40.50;;;;;;;;;;5075254;28;20797;-71
2021/04/20 01:35:45;;;;;;;43.27;39.27;;;;;;;;;;5074903;28;20413;-72
2021/04/20 01:38:12;;;;;;;45.40;41.03;;;;;;;;;;5074855;28;20535;-71
2021/04/20 01:40:39;;;;;;;46.33;42.07;;;;;;;;;;5074554;28;20775;-72
2021/04/20 01:43:07;;;;;;;44.40;40.20;;;;;;;;;;5075084;28;20401;-72
2021/04/20 01:45:34;;;;;;;43.30;39.33;;;;;;;;;;5075084;28;20453;-71
2021/04/20 01:48:01;;;;;;;46.93;42.43;;;;;;;;;;5074991;28;20471;-71
2021/04/20 01:50:28;;;;;;;44.73;40.43;;;;;;;;;;5074579;28;20823;-71
2021/04/20 01:52:55;;;;;;;45.57;41.17;;;;;;;;;;5074597;28;20426;-71
2021/04/20 01:55:22;;;;;;;46.10;41.80;;;;;;;;;;5074318;28;20752;-72
2021/04/20 01:57:51;;;;;;;45.63;40.83;;;;;;;;;;5074643;28;20811;-71
2021/04/20 02:00:20;;;;;;;47.00;42.33;;;;;;;;;;5074708;28;20801;-72
2021/04/20 02:02:47;;;;;;;45.07;40.47;;;;;;;;;;5073496;28;20411;-71
2021/04/20 02:05:15;;;;;;;46.20;41.57;;;;;;;;;;5074679;28;20419;-71
2021/04/20 02:07:43;;;;;;;43.77;39.63;;;;;;;;;;5074636;28;20492;-72
2021/04/20 02:10:11;;;;;;;46.27;41.90;;;;;;;;;;5074022;28;20804;-71
2021/04/20 02:12:38;;;;;;;46.00;41.67;;;;;;;;;;5074497;28;20456;-72
2021/04/20 02:15:10;;;;;;;46.73;42.23;;;;;;;;;;5074190;28;20442;-71
2021/04/20 02:17:38;;;;;;;45.27;40.93;;;;;;;;;;5074363;28;20452;-72
2021/04/20 02:20:05;;;;;;;46.87;42.20;;;;;;;;;;5074063;28;20434;-71
2021/04/20 02:22:32;;;;;;;46.40;41.67;;;;;;;;;;5073890;28;20428;-71
2021/04/20 02:24:59;;;;;;;45.67;41.00;;;;;;;;;;5074293;28;20437;-71
2021/04/20 02:27:26;;;;;;;44.33;40.03;;;;;;;;;;5074121;28;20422;-71
2021/04/20 02:29:53;;;;;;;45.80;41.40;;;;;;;;;;5074256;28;20416;-71
2021/04/20 02:32:20;;;;;;;44.93;40.50;;;;;;;;;;5074125;28;20420;-71
2021/04/20 02:34:48;;;;;;;42.53;38.23;;;;;;;;;;5074162;28;20411;-71
2021/04/20 02:37:17;;;;;;;44.43;40.03;;;;;;;;;;5073745;28;20420;-71
2021/04/20 02:39:44;;;;;;;45.77;41.40;;;;;;;;;;5074082;28;20538;-71
2021/04/20 02:42:11;;;;;;;45.27;40.90;;;;;;;;;;5074011;28;20494;-71
2021/04/20 02:44:38;;;;;;;45.93;41.50;;;;;;;;;;5073052;28;20434;-72
2021/04/20 02:47:05;;;;;;;45.00;40.70;;;;;;;;;;5073959;28;20445;-71
2021/04/20 02:49:32;;;;;;;44.07;39.67;;;;;;;;;;5073587;28;20426;-71
2021/04/20 02:52:00;;;;;;;44.23;40.03;;;;;;;;;;5073257;28;20416;-72
2021/04/20 02:54:28;;;;;;;43.73;39.47;;;;;;;;;;5073589;28;20788;-72
2021/04/20 02:56:55;;;;;;;42.97;38.77;;;;;;;;;;5073231;28;20447;-71
2021/04/20 02:59:22;;;;;;;46.00;41.47;;;;;;;;;;5073726;28;20850;-71
2021/04/20 03:01:48;;;;;;;44.80;40.17;;;;;;;;;;5073558;28;20421;-71
2021/04/20 03:04:16;;;;;;;43.60;39.30;;;;;;;;;;5073632;28;20800;-71
2021/04/20 03:06:44;;;;;;;46.23;41.73;;;;;;;;;;5073733;28;20482;-71
2021/04/20 03:09:12;;;;;;;47.10;42.40;;;;;;;;;;5073756;28;20808;-71
2021/04/20 03:11:41;;;;;;;47.57;42.83;;;;;;;;;;5073367;28;20935;-71
2021/04/20 03:14:08;;;;;;;47.43;42.50;;;;;;;;;;5073657;28;20487;-71
2021/04/20 03:16:35;;;;;;;43.63;39.33;;;;;;;;;;5073344;28;20454;-71
2021/04/20 03:19:03;;;;;;;48.33;43.13;;;;;;;;;;5073241;28;20489;-71
2021/04/20 03:21:31;;;;;;;44.53;39.83;;;;;;;;;;5073662;28;20555;-71
2021/04/20 03:23:58;;;;;;;47.63;42.53;;;;;;;;;;5073346;28;20480;-71
2021/04/20 03:26:33;;;;;;;46.70;41.80;;;;;;;;;;5073437;28;20419;-71
2021/04/20 03:29:00;;;;;;;45.87;41.13;;;;;;;;;;5073362;28;20929;-71
2021/04/20 03:31:27;;;;;;;45.13;40.53;;;;;;;;;;5073512;28;20411;-71
2021/04/20 03:33:57;;;;;;;44.80;40.27;;;;;;;;;;5072228;28;20966;-71
2021/04/20 03:36:27;;;;;;;44.93;40.63;;;;;;;;;;5073216;28;20421;-71
2021/04/20 03:38:56;;;;;;;45.40;40.67;;;;;;;;;;5073147;28;20542;-72
2021/04/20 03:41:25;;;;;;;46.87;41.97;;;;;;;;;;5073151;28;20416;-72
2021/04/20 03:43:55;;;;;;;43.97;39.77;;;;;;;;;;5073088;28;20416;-71
2021/04/20 03:46:23;;;;;;;44.77;40.13;;;;;;;;;;5073448;28;20445;-71
2021/04/20 03:48:54;;;;;;;45.27;40.57;;;;;;;;;;5073161;28;20494;-72
2021/04/20 03:51:23;;;;;;;46.33;41.67;;;;;;;;;;5073357;28;20407;-71
2021/04/20 03:53:52;;;;;;;44.50;39.90;;;;;;;;;;5073360;28;20434;-71
2021/04/20 03:56:23;;;;;;;46.50;41.13;;;;;;;;;;5072967;28;20489;-71
2021/04/20 03:58:51;;;;;;;45.00;40.40;;;;;;;;;;5073503;28;20797;-71
2021/04/20 04:01:19;;;;;;;45.17;40.50;;;;;;;;;;5073224;28;20473;-73
2021/04/20 04:03:47;;;;;;;48.27;43.40;;;;;;;;;;5074175;28;20465;-71
2021/04/20 04:06:14;;;;;;;47.50;42.50;;;;;;;;;;5076691;28;20952;-71
2021/04/20 04:08:42;;;;;;;44.70;40.20;;;;;;;;;;5076900;28;20537;-71
2021/04/20 04:11:09;;;;;;;48.23;43.00;;;;;;;;;;5076928;28;20416;-72
2021/04/20 04:13:39;;;;;;;48.03;42.73;;;;;;;;;;5076785;28;20415;-71
2021/04/20 04:16:07;;;;;;;49.47;44.00;;;;;;;;;;5076787;28;20441;-71
2021/04/20 04:18:36;;;;;;;45.67;40.80;;;;;;;;;;5076939;28;20850;-71
2021/04/20 04:21:05;;;;;;;47.20;41.83;;;;;;;;;;5076425;28;20445;-70
2021/04/20 04:23:36;;;;;;;50.50;43.57;;;;;;;;;;5076342;28;20443;-71
2021/04/20 04:26:04;;;;;;;47.50;42.40;;;;;;;;;;5076594;28;20405;-71
2021/04/20 04:28:31;;;;;;;45.27;40.57;;;;;;;;;;5076438;28;20426;-71
2021/04/20 04:30:59;;;;;;;49.20;42.30;;;;;;;;;;5076195;28;20805;-72
2021/04/20 04:33:26;;;;;;;46.10;41.23;;;;;;;;;;5076275;28;20788;-71
2021/04/20 04:35:54;;;;;;;44.77;40.40;;;;;;;;;;5076418;28;20856;-72
2021/04/20 04:38:22;;;;;;;46.37;41.73;;;;;;;;;;5074553;28;20507;-71
2021/04/20 04:40:49;;;;;;;49.67;44.47;;;;;;;;;;5076024;28;20899;-71
2021/04/20 04:43:16;;;;;;;44.27;39.87;;;;;;;;;;5076229;28;20468;-71
2021/04/20 04:45:43;;;;;;;46.43;41.40;;;;;;;;;;5075976;28;20448;-71
2021/04/20 04:48:10;;;;;;;46.80;41.87;;;;;;;;;;5076243;28;20457;-71
2021/04/20 04:50:38;;;;;;;46.97;42.07;;;;;;;;;;5074919;28;20566;-71
2021/04/20 04:53:07;;;;;;;49.37;43.90;;;;;;;;;;5076050;28;20443;-71
2021/04/20 04:55:33;;;;;;;46.53;41.87;;;;;;;;;;5075589;28;20455;-71
2021/04/20 04:58:00;;;;;;;47.57;42.63;;;;;;;;;;5075557;28;20456;-73
2021/04/20 05:00:27;;;;;;;46.13;41.53;;;;;;;;;;5076415;28;20539;-70
2021/04/20 05:02:55;;;;;;;49.43;43.77;;;;;;;;;;5075663;28;20445;-70
2021/04/20 05:05:22;;;;;;;44.60;39.73;;;;;;;;;;5075776;28;20502;-71
2021/04/20 05:07:49;;;;;;;49.07;43.90;;;;;;;;;;5075811;28;20438;-71
2021/04/20 05:10:16;;;;;;;46.93;41.43;;;;;;;;;;5075718;28;20437;-71
2021/04/20 05:12:43;;;;;;;44.80;40.10;;;;;;;;;;5075691;28;20428;-71
2021/04/20 05:15:12;;;;;;;49.93;43.67;;;;;;;;;;5074647;28;20466;-71
2021/04/20 05:17:39;;;;;;;52.40;43.93;;;;;;;;;;5075540;28;20476;-71
2021/04/20 05:20:07;;;;;;;46.50;41.53;;;;;;;;;;5075594;28;20411;-70
2021/04/20 05:22:35;;;;;;;48.67;43.67;;;;;;;;;;5075465;28;20442;-71
2021/04/20 05:25:02;;;;;;;50.33;42.17;;;;;;;;;;5075191;28;20860;-71
2021/04/20 05:27:30;;;;;;;50.23;44.80;;;;;;;;;;5074968;28;20476;-71
2021/04/20 05:29:57;;;;;;;50.90;45.30;;;;;;;;;;5075315;28;20457;-71
2021/04/20 05:32:23;;;;;;;50.57;45.30;;;;;;;;;;5075022;28;20459;-71
2021/04/20 05:34:51;;;;;;;51.53;45.97;;;;;;;;;;5075036;28;20461;-70
2021/04/20 05:37:29;;;;;;;53.97;48.17;;;;;;;;;;5074878;28;20495;-71
2021/04/20 05:39:56;;;;;;;49.67;44.33;;;;;;;;;;5075010;28;20912;-71
2021/04/20 05:42:23;;;;;;;53.27;47.87;;;;;;;;;;5074778;28;20412;-71
2021/04/20 05:44:51;;;;;;;57.40;49.97;;;;;;;;;;5074887;28;20416;-70
2021/04/20 05:47:18;;;;;;;58.47;49.23;;;;;;;;;;5075051;28;20449;-71
2021/04/20 05:49:45;;;;;;;56.33;50.23;;;;;;;;;;5075026;28;20433;-71
2021/04/20 05:52:12;;;;;;;58.33;51.93;;;;;;;;;;5074665;28;20430;-70
2021/04/20 05:54:39;;;;;;;62.60;53.27;;;;;;;;;;5074873;28;20441;-70
2021/04/20 05:57:06;;;;;;;56.20;50.10;;;;;;;;;;5074279;28;20466;-70
2021/04/20 05:59:33;;;;;;;60.73;53.43;;;;;;;;;;5073526;28;20485;-71
2021/04/20 06:02:01;;;;;;;59.43;53.07;;;;;;;;;;5074661;28;20444;-70
2021/04/20 06:04:28;;;;;;;58.03;51.70;;;;;;;;;;5074337;28;20947;-71
2021/04/20 06:06:55;;;;;;;59.40;52.90;;;;;;;;;;5074618;28;20452;-71
2021/04/20 06:09:22;;;;;;;57.10;51.00;;;;;;;;;;5074291;28;20889;-71
2021/04/20 06:11:49;;;;;;;55.37;49.30;;;;;;;;;;5074568;28;20445;-71
2021/04/20 06:14:16;;;;;;;61.83;53.00;;;;;;;;;;5074382;28;20434;-71
2021/04/20 06:16:42;;;;;;;54.60;48.30;;;;;;;;;;5074324;28;20431;-71
2021/04/20 06:19:10;;;;;;;58.90;50.13;;;;;;;;;;5074290;28;20460;-71
2021/04/20 06:21:37;;;;;;;61.93;51.00;;;;;;;;;;5074368;28;20401;-71
2021/04/20 06:24:05;;;;;;;56.53;50.47;;;;;;;;;;5073955;28;20523;-71
2021/04/20 06:26:34;;;;;;;56.73;50.60;;;;;;;;;;5072965;28;20401;-71
2021/04/20 06:29:02;;;;;;;57.90;51.70;;;;;;;;;;5073810;28;20901;-71
2021/04/20 06:31:28;;;;;;;57.53;51.40;;;;;;;;;;5073920;28;20411;-71
2021/04/20 06:33:55;;;;;;;59.97;52.30;;;;;;;;;;5073780;28;20905;-71
2021/04/20 06:36:23;;;;;;;59.80;52.27;;;;;;;;;;5074078;28;20415;-71
2021/04/20 06:38:50;;;;;;;58.33;52.07;;;;;;;;;;5074008;28;20461;-71
2021/04/20 06:41:23;;;;;;;63.77;53.07;;;;;;;;;;5074017;28;20441;-71
2021/04/20 06:43:54;;;;;;;59.33;52.80;;;;;;;;;;5073559;28;20452;-71
2021/04/20 06:46:24;;;;;;;65.20;58.00;;;;;;;;;;5073889;28;20444;-71
2021/04/20 06:48:53;;;;;;;63.73;54.90;;;;;;;;;;5073841;28;20549;-71
2021/04/20 06:51:21;;;;;;;59.10;52.60;;;;;;;;;;5073688;28;20894;-71
2021/04/20 06:53:51;;;;;;;61.10;54.50;;;;;;;;;;5073816;28;20417;-70
2021/04/20 06:56:22;;;;;;;59.70;53.30;;;;;;;;;;5073344;28;20458;-71
2021/04/20 06:58:55;;;;;;;60.10;53.70;;;;;;;;;;5073578;28;20480;-71
2021/04/20 07:01:25;;;;;;;63.40;55.37;;;;;;;;;;5072263;28;20927;-71
2021/04/20 07:03:57;;;;;;;59.50;53.10;;;;;;;;;;5073392;28;20462;-70
2021/04/20 07:06:26;;;;;;;60.83;54.23;;;;;;;;;;5072234;28;20518;-70
2021/04/20 07:08:58;;;;;;;63.20;54.80;;;;;;;;;;5073529;28;20453;-71
2021/04/20 07:11:26;;;;;;;63.70;54.60;;;;;;;;;;5072001;28;20437;-73
2021/04/20 07:13:55;;;;;;;59.67;53.17;;;;;;;;;;5072180;28;20445;-74
2021/04/20 07:16:26;;;;;;;64.37;57.13;;;;;;;;;;5074439;28;20536;-74
2021/04/20 07:19:08;;;;;;;58.10;51.50;;;;;;;;;;5073362;28;20546;-74
2021/04/20 07:21:51;;;;;;;65.00;53.50;;;;;;;;;;5073685;28;20420;-77
2021/04/20 07:24:20;;;;;;;59.73;53.33;;;;;;;;;;5061287;28;20982;-73
2021/04/20 07:27:05;;;;;;;61.27;54.77;;;;;;;;;;5073360;28;20419;-72
2021/04/20 07:29:36;;;;;;;59.30;52.90;;;;;;;;;;5073209;28;20400;-70
2021/04/20 07:32:18;;;;;;;63.87;53.87;;;;;;;;;;5073172;28;20433;-70
2021/04/20 07:34:50;;;;;;;61.27;54.77;;;;;;;;;;5060894;28;20436;-70
2021/04/20 07:37:24;;;;;;;59.00;52.60;;;;;;;;;;5073732;28;20437;-70
2021/04/20 07:39:58;;;;;;;63.33;52.40;;;;;;;;;;5077455;28;20485;-70
2021/04/20 07:42:26;;;;;;;55.53;49.50;;;;;;;;;;5077426;28;20461;-70
2021/04/20 07:44:58;;;;;;;56.20;50.30;;;;;;;;;;5077460;28;20405;-70
2021/04/20 07:47:26;;;;;;;59.90;53.43;;;;;;;;;;5077024;28;20420;-70
2021/04/20 07:49:58;;;;;;;54.90;49.10;;;;;;;;;;5077043;28;20484;-70
2021/04/20 07:52:27;;;;;;;54.50;48.90;;;;;;;;;;5077150;28;20450;-70
2021/04/20 07:54:58;;;;;;;55.60;49.87;;;;;;;;;;5076920;28;20464;-70
2021/04/20 07:57:27;;;;;;;58.53;52.33;;;;;;;;;;5076608;28;20482;-70
2021/04/20 07:59:58;;;;;;;73.40;57.47;;;;;;;;;;5076761;28;20524;-70
2021/04/20 08:02:31;;;;;;;54.93;49.00;;;;;;;;;;5076961;28;20408;-70
2021/04/20 08:05:01;;;;;;;55.17;49.60;;;;;;;;;;5076711;28;20409;-70
2021/04/20 08:07:33;;;;;;;52.63;47.27;;;;;;;;;;5076952;28;20911;-70
2021/04/20 08:10:03;;;;;;;54.20;48.73;;;;;;;;;;5076635;28;20886;-70
2021/04/20 08:12:33;;;;;;;49.60;44.43;;;;;;;;;;5076855;28;20901;-70
2021/04/20 08:15:03;;;;;;;53.73;48.23;;;;;;;;;;5076503;28;20419;-70
2021/04/20 08:17:33;;;;;;;52.43;47.13;;;;;;;;;;5076806;28;20433;-70
2021/04/20 08:20:02;;;;;;;53.03;47.63;;;;;;;;;;5076749;28;20484;-70
2021/04/20 08:22:29;;;;;;;51.43;46.27;;;;;;;;;;5076698;28;20556;-71
2021/04/20 08:24:58;;;;;;;50.23;44.93;;;;;;;;;;5076336;28;20421;-70
2021/04/20 08:27:29;;;;;;;49.67;44.93;;;;;;;;;;5076494;28;20442;-71
2021/04/20 08:29:59;;;;;;;52.53;47.30;;;;;;;;;;5075305;28;20924;-70
2021/04/20 08:32:29;;;;;;;52.37;47.10;;;;;;;;;;5076410;28;20751;-70
2021/04/20 08:34:58;;;;;;;49.77;44.93;;;;;;;;;;5076404;28;20441;-71
2021/04/20 08:37:30;;;;;;;53.83;48.43;;;;;;;;;;5075649;28;20409;-75
2021/04/20 08:40:02;;;;;;;50.13;45.10;;;;;;;;;;5075977;28;20488;-74
2021/04/20 08:42:36;;;;;;;50.50;45.67;;;;;;;;;;5076074;28;20906;-69
2021/04/20 08:45:07;;;;;;;51.33;46.10;;;;;;;;;;5074803;28;20453;-69
2021/04/20 08:47:37;;;;;;;50.87;45.80;;;;;;;;;;5076310;28;20404;-70
2021/04/20 08:50:06;;;;;;;51.50;46.73;;;;;;;;;;5074902;28;20445;-69
2021/04/20 08:52:44;;;;;;;51.93;46.73;;;;;;;;;;5076066;28;20437;-69
2021/04/20 08:55:17;;;;;;;52.00;47.00;;;;;;;;;;5075625;28;20434;-70
2021/04/20 08:57:53;;;;;;;52.90;47.60;;;;;;;;;;5075583;28;20943;-71
2021/04/20 09:00:23;;;;;;;50.63;45.63;;;;;;;;;;5074592;28;20446;-70
2021/04/20 09:02:56;;;;;;;52.13;46.83;;;;;;;;;;5075765;28;20473;-70
2021/04/20 09:05:24;;;;;;;53.33;47.60;;;;;;;;;;5075887;28;20427;-70
2021/04/20 09:08:12;;;;;;;53.67;48.17;;;;;;;;;;5074618;28;20405;-70
2021/04/20 09:10:43;;;;;;;52.00;47.00;;;;;;;;;;5075524;28;20511;-70
2021/04/20 09:13:14;;;;;;;50.43;45.30;;;;;;;;;;5074473;28;20408;-70
2021/04/20 09:15:43;;;;;;;51.50;46.60;;;;;;;;;;5075517;28;20437;-69
2021/04/20 09:18:14;;;;;;;51.10;46.10;;;;;;;;;;5074437;28;20480;-70
2021/04/20 09:20:44;;;;;;;52.70;47.77;;;;;;;;;;5075669;28;20495;-70
2021/04/20 09:23:16;;;;;;;51.63;46.63;;;;;;;;;;5075337;28;20413;-69
2021/04/20 09:25:46;;;;;;;52.73;47.50;;;;;;;;;;5075268;28;20417;-70
2021/04/20 09:28:16;;;;;;;48.80;43.73;;;;;;;;;;5074078;28;20449;-70
2021/04/20 09:30:45;;;;;;;50.10;44.97;;;;;;;;;;5076008;28;20430;-70
2021/04/20 09:33:15;;;;;;;51.10;46.10;;;;;;;;;;5074431;28;20416;-75
2021/04/20 09:35:43;;;;;;;50.80;45.83;;;;;;;;;;5075499;28;20427;-74
2021/04/20 09:38:11;;;;;;;49.90;45.00;;;;;;;;;;5074947;28;20443;-75
2021/04/20 09:40:40;;;;;;;50.00;45.10;;;;;;;;;;5073807;28;20427;-74
2021/04/20 09:43:10;;;;;;;48.07;43.50;;;;;;;;;;5075260;28;20483;-69
2021/04/20 09:45:40;;;;;;;46.93;42.37;;;;;;;;;;5074829;28;20438;-69
2021/04/20 09:48:10;;;;;;;48.77;44.10;;;;;;;;;;5075115;28;20495;-70
2021/04/20 09:50:43;;;;;;;50.47;45.50;;;;;;;;;;5074801;28;20430;-78
2021/04/20 09:53:25;;;;;;;50.80;46.00;;;;;;;;;;5075143;28;20769;-76
2021/04/20 09:55:56;;;;;;;51.33;46.27;;;;;;;;;;5075089;28;20452;-74
2021/04/20 09:58:24;;;;;;;49.27;44.80;;;;;;;;;;5074351;28;20481;-75
2021/04/20 10:00:52;;;;;;;49.67;44.83;;;;;;;;;;5074728;28;20913;-74
2021/04/20 10:03:24;;;;;;;49.13;44.63;;;;;;;;;;5074249;28;20466;-74
2021/04/20 10:06:00;;;;;;;53.00;47.23;;;;;;;;;;5075078;28;20504;-75
2021/04/20 10:08:35;;;;;;;50.73;45.93;;;;;;;;;;5074829;28;20499;-75
2021/04/20 10:11:04;;;;;;;50.27;45.20;;;;;;;;;;5074677;28;20417;-75
2021/04/20 10:13:55;;;;;;;48.23;43.60;;;;;;;;;;5074396;28;20501;-75
2021/04/20 10:16:26;;;;;;;51.30;46.43;;;;;;;;;;5059868;28;20465;-75
2021/04/20 10:18:57;;;;;;;49.87;45.30;;;;;;;;;;5074130;28;20452;-75
2021/04/20 10:21:29;;;;;;;48.77;44.13;;;;;;;;;;5074135;28;20442;-75
2021/04/20 10:24:01;;;;;;;51.43;46.53;;;;;;;;;;5074143;28;20438;-75
2021/04/20 10:26:31;;;;;;;50.57;45.90;;;;;;;;;;5074283;28;20419;-75
2021/04/20 10:29:00;;;;;;;50.07;45.23;;;;;;;;;;5074443;28;20405;-75
2021/04/20 10:31:31;;;;;;;45.23;41.37;;;;;;;;;;5074329;28;20413;-74
2021/04/20 10:33:59;;;;;;;46.17;41.67;;;;;;;;;;5073971;28;20405;-74
2021/04/20 10:36:27;;;;;;;49.03;44.43;;;;;;;;;;5074087;28;20493;-75
2021/04/20 10:38:54;;;;;;;46.03;41.93;;;;;;;;;;5073943;28;20490;-74
2021/04/20 10:41:22;;;;;;;47.00;42.77;;;;;;;;;;5074197;28;20517;-75
2021/04/20 10:43:52;;;;;;;47.10;42.80;;;;;;;;;;5074136;28;20417;-75
2021/04/20 10:46:24;;;;;;;46.27;41.80;;;;;;;;;;5073986;28;20437;-74
2021/04/20 10:48:52;;;;;;;47.33;43.10;;;;;;;;;;5074003;28;20467;-75
2021/04/20 10:51:19;;;;;;;47.00;42.77;;;;;;;;;;5073601;28;20434;-75
2021/04/20 10:53:47;;;;;;;46.70;42.30;;;;;;;;;;5074195;28;20446;-74
2021/04/20 10:56:15;;;;;;;44.57;40.37;;;;;;;;;;5071956;28;20485;-74
2021/04/20 10:58:43;;;;;;;41.63;37.60;;;;;;;;;;5073515;28;20492;-75
2021/04/20 11:01:14;;;;;;;42.77;38.97;;;;;;;;;;5072346;28;20929;-74
2021/04/20 11:03:41;;;;;;;44.60;40.40;;;;;;;;;;5073280;28;20437;-76
2021/04/20 11:06:23;;;;;;;43.63;39.63;;;;;;;;;;5074186;28;20478;-75
2021/04/20 11:08:51;;;;;;;44.90;40.43;;;;;;;;;;5055915;28;20815;-75
2021/04/20 11:11:19;;;;;;;45.93;41.67;;;;;;;;;;5073745;28;20433;-75
2021/04/20 11:13:47;;;;;;;43.97;39.97;;;;;;;;;;5072873;28;20414;-75
2021/04/20 11:16:16;;;;;;;43.77;39.80;;;;;;;;;;5073110;28;21002;-75
2021/04/20 11:18:45;;;;;;;45.90;41.63;;;;;;;;;;5073632;28;20462;-74
2021/04/20 11:21:15;;;;;;;44.50;40.20;;;;;;;;;;5073377;28;20426;-78
2021/04/20 11:23:49;;;;;;;45.73;41.70;;;;;;;;;;5073581;28;20930;-74
2021/04/20 11:26:17;;;;;;;46.87;42.50;;;;;;;;;;5073372;28;20930;-75
2021/04/20 11:28:48;;;;;;;49.73;45.37;;;;;;;;;;5073535;28;20440;-75
2021/04/20 11:31:22;;;;;;;48.60;44.30;;;;;;;;;;5073916;28;20782;-74
2021/04/20 11:33:51;;;;;;;43.17;39.60;;;;;;;;;;5073642;28;20404;-75
2021/04/20 11:36:20;;;;;;;41.50;37.90;;;;;;;;;;5073376;28;20517;-76
2021/04/20 11:38:48;;;;;;;41.20;37.57;;;;;;;;;;5074225;28;20457;-75
2021/04/20 11:41:16;;;;;;;40.63;37.30;;;;;;;;;;5073892;28;20837;-75
2021/04/20 11:43:45;;;;;;;42.43;38.80;;;;;;;;;;5073177;28;20405;-75
2021/04/20 11:46:17;;;;;;;42.53;39.03;;;;;;;;;;5073316;28;20445;-74
2021/04/20 11:48:46;;;;;;;39.63;36.60;;;;;;;;;;5073433;28;20435;-75
2021/04/20 11:51:13;;;;;;;43.70;39.93;;;;;;;;;;5073403;28;20879;-75
2021/04/20 11:53:41;;;;;;;43.30;39.67;;;;;;;;;;5072990;28;20425;-75
2021/04/20 11:56:09;;;;;;;43.50;39.90;;;;;;;;;;5072887;28;20494;-75
2021/04/20 11:58:37;;;;;;;40.20;36.70;;;;;;;;;;5073034;28;20507;-75
2021/04/20 12:01:10;;;;;;;37.43;34.30;;;;;;;;;;5073014;28;20431;-76
2021/04/20 12:03:44;;;;;;;37.67;34.37;;;;;;;;;;5073019;28;20437;-75
2021/04/20 12:06:11;;;;;;;39.00;35.70;;;;;;;;;;5073185;28;20427;-75
2021/04/20 12:08:41;;;;;;;36.83;33.80;;;;;;;;;;5072837;28;20478;-75
2021/04/20 12:11:08;;;;;;;38.70;35.40;;;;;;;;;;5073104;28;20442;-76
2021/04/20 12:13:36;;;;;;;39.30;35.97;;;;;;;;;;5073081;28;20439;-76
2021/04/20 12:16:05;;;;;;;39.30;35.47;;;;;;;;;;5073111;28;20443;-76
2021/04/20 12:18:34;;;;;;;39.77;36.27;;;;;;;;;;5071302;28;20489;-75
2021/04/20 12:21:02;;;;;;;35.20;32.23;;;;;;;;;;5073008;28;20451;-75
2021/04/20 12:23:30;;;;;;;35.07;32.37;;;;;;;;;;5073437;28;20446;-75
2021/04/20 12:25:58;;;;;;;35.97;33.20;;;;;;;;;;5076287;28;20823;-75
2021/04/20 12:28:26;;;;;;;36.07;33.03;;;;;;;;;;5076097;28;20918;-75
2021/04/20 12:30:53;;;;;;;34.67;31.87;;;;;;;;;;5075603;28;20438;-75
2021/04/20 12:33:21;;;;;;;33.60;30.97;;;;;;;;;;5076265;28;20461;-75
2021/04/20 12:35:50;;;;;;;34.10;31.60;;;;;;;;;;5076456;28;20487;-76
2021/04/20 12:38:19;;;;;;;32.63;29.70;;;;;;;;;;5075560;28;20450;-75
2021/04/20 12:40:50;;;;;;;32.27;29.77;;;;;;;;;;5076342;28;20877;-76
2021/04/20 12:43:19;;;;;;;33.50;30.70;;;;;;;;;;5075791;28;20887;-76
2021/04/20 12:45:47;;;;;;;33.63;31.33;;;;;;;;;;5076377;28;20416;-75
2021/04/20 12:48:16;;;;;;;34.23;31.63;;;;;;;;;;5075952;28;20418;-76
2021/04/20 12:50:46;;;;;;;34.47;31.77;;;;;;;;;;5075549;28;20900;-74
2021/04/20 12:53:15;;;;;;;32.27;29.67;;;;;;;;;;5075977;28;20770;-77
2021/04/20 12:55:43;;;;;;;32.20;29.70;;;;;;;;;;5076699;28;20456;-75
2021/04/20 12:58:11;;;;;;;34.50;31.83;;;;;;;;;;5075582;28;20442;-75
2021/04/20 13:00:38;;;;;;;34.27;30.43;;;;;;;;;;5074846;28;20439;-75
2021/04/20 13:03:06;;;;;;;31.10;28.90;;;;;;;;;;5075661;28;20950;-74
2021/04/20 13:05:35;;;;;;;33.60;31.00;;;;;;;;;;5075980;28;20434;-74
2021/04/20 13:08:03;;;;;;;32.07;29.77;;;;;;;;;;5075769;28;20944;-74
2021/04/20 13:10:31;;;;;;;32.93;30.50;;;;;;;;;;5075840;28;20489;-74
2021/04/20 13:13:00;;;;;;;31.73;29.53;;;;;;;;;;5075739;28;20445;-74
2021/04/20 13:15:27;;;;;;;33.10;30.70;;;;;;;;;;5075663;28;20416;-75
2021/04/20 13:17:55;;;;;;;31.27;28.97;;;;;;;;;;5075806;28;20980;-75
2021/04/20 13:20:23;;;;;;;35.23;32.37;;;;;;;;;;5075294;28;20477;-75
2021/04/20 13:22:50;;;;;;;34.63;31.73;;;;;;;;;;5075715;28;20846;-74
2021/04/20 13:25:17;;;;;;;33.47;30.97;;;;;;;;;;5075433;28;20756;-75
2021/04/20 13:27:47;;;;;;;34.70;31.83;;;;;;;;;;5074831;28;20487;-79
2021/04/20 13:30:18;;;;;;;33.53;30.80;;;;;;;;;;5091091;28;20436;-74
2021/04/20 13:33:23;;;;;;;;;;;;;;;;;;;;;
2021/04/20 13:35:52;;;;;;;34.67;32.00;;;;;;;;;;5092945;28;20439;-75
2021/04/20 13:38:19;;;;;;;34.73;32.00;;;;;;;;;;5095540;28;20768;-75
2021/04/20 13:40:46;;;;;;;34.20;31.70;;;;;;;;;;5095591;28;20406;-75
2021/04/20 13:43:14;;;;;;;33.53;30.83;;;;;;;;;;5095452;28;20446;-74
2021/04/20 13:45:41;;;;;;;37.87;34.60;;;;;;;;;;5095158;28;20420;-75
2021/04/20 13:48:10;;;;;;;36.97;33.83;;;;;;;;;;5095019;28;20894;-74
2021/04/20 13:50:38;;;;;;;35.30;32.70;;;;;;;;;;5094154;28;20415;-74
2021/04/20 13:53:09;;;;;;;33.63;31.10;;;;;;;;;;5095111;28;20460;-74
2021/04/20 13:55:37;;;;;;;34.37;31.83;;;;;;;;;;5094950;28;20474;-75
2021/04/20 13:58:06;;;;;;;36.17;33.37;;;;;;;;;;5095174;28;20451;-75
2021/04/20 14:00:36;;;;;;;33.33;31.00;;;;;;;;;;5095552;28;20488;-76
2021/04/20 14:03:04;;;;;;;34.83;32.13;;;;;;;;;;5093158;28;20772;-74
2021/04/20 14:05:33;;;;;;;35.10;32.50;;;;;;;;;;5094845;28;20442;-74
2021/04/20 14:08:02;;;;;;;33.90;31.20;;;;;;;;;;5094964;28;20449;-74
2021/04/20 14:10:30;;;;;;;36.17;33.37;;;;;;;;;;5094765;28;20429;-74
2021/04/20 14:12:58;;;;;;;36.30;33.70;;;;;;;;;;5094982;28;20854;-74
2021/04/20 14:15:26;;;;;;;36.70;33.87;;;;;;;;;;5094560;28;20449;-73
2021/04/20 14:17:57;;;;;;;38.97;36.10;;;;;;;;;;5094829;28;20414;-74
2021/04/20 14:20:27;;;;;;;38.47;35.13;;;;;;;;;;5094728;28;20518;-74
2021/04/20 14:22:54;;;;;;;37.03;33.93;;;;;;;;;;5094748;28;20509;-76
2021/04/20 14:25:22;;;;;;;36.67;33.87;;;;;;;;;;5094827;28;20794;-75
2021/04/20 14:27:52;;;;;;;37.93;35.03;;;;;;;;;;5094447;28;20436;-73
2021/04/20 14:30:20;;;;;;;35.93;33.17;;;;;;;;;;5094251;28;20418;-80